Time,TemperatureF,DewpointF,PressureIn,WindDirection,WindDirectionDegrees,WindSpeedMPH,WindSpeedGustMPH,Humidity,HourlyPrecipIn,Conditions,Clouds,dailyrainin,SoftwareType,DateUTC
2013-04-15 00:00:00,64.3,32.2,29.54,West,271,11.0,11.0,30,0.00,,,0.00,Wunderground v.1.15,2013-04-15 07:00:00,
2013-04-15 00:50:00,62.0,31.8,29.55,SW,219,4.0,10.0,32,0.00,,,0.00,Wunderground v.1.15,2013-04-15 07:50:00,
2013-04-15 01:00:00,62.5,31.4,29.56,SSE,159,6.0,10.0,31,0.00,,,0.00,Wunderground v.1.15,2013-04-15 08:00:00,
2013-04-15 01:10:00,61.7,31.5,29.56,SSW,192,7.0,13.0,32,0.00,,,0.00,Wunderground v.1.15,2013-04-15 08:10:00,
2013-04-15 01:20:00,61.2,31.1,29.55,South,179,15.0,20.0,32,0.00,,,0.00,Wunderground v.1.15,2013-04-15 08:20:00,
2013-04-15 01:40:00,61.4,31.3,29.55,South,181,17.0,22.0,32,0.00,,,0.00,Wunderground v.1.15,2013-04-15 08:40:00,
2013-04-15 01:50:00,61.4,31.3,29.54,South,182,20.0,22.0,32,0.00,,,0.00,Wunderground v.1.15,2013-04-15 08:50:00,
2013-04-15 02:00:00,61.2,31.1,29.55,SSW,198,19.0,19.0,32,0.00,,,0.00,Wunderground v.1.15,2013-04-15 09:00:00,
2013-04-15 02:10:00,61.1,31.8,29.54,SSW,207,17.0,17.0,33,0.00,,,0.00,Wunderground v.1.15,2013-04-15 09:10:00,
2013-04-15 02:20:00,60.7,31.4,29.54,SSW,205,14.0,14.0,33,0.00,,,0.00,Wunderground v.1.15,2013-04-15 09:20:00,
2013-04-15 02:30:00,60.5,32.0,29.55,SW,223,13.0,15.0,34,0.00,,,0.00,Wunderground v.1.15,2013-04-15 09:30:00,
2013-04-15 02:40:00,60.4,31.9,29.55,SW,232,14.0,14.0,34,0.00,,,0.00,Wunderground v.1.15,2013-04-15 09:40:00,
2013-04-15 02:50:00,60.3,32.5,29.54,SSW,206,13.0,14.0,35,0.00,,,0.00,Wunderground v.1.15,2013-04-15 09:50:00,
2013-04-15 03:00:00,60.3,32.5,29.55,SSW,195,16.0,16.0,35,0.00,,,0.00,Wunderground v.1.15,2013-04-15 10:00:00,
2013-04-15 03:10:00,60.1,32.3,29.55,South,188,18.0,19.0,35,0.00,,,0.00,Wunderground v.1.15,2013-04-15 10:10:00,
2013-04-15 03:20:00,59.6,32.6,29.54,South,190,18.0,19.0,36,0.00,,,0.00,Wunderground v.1.15,2013-04-15 10:20:00,
2013-04-15 03:30:00,59.0,32.1,29.54,SSW,207,17.0,17.0,36,0.00,,,0.00,Wunderground v.1.15,2013-04-15 10:30:00,
2013-04-15 03:40:00,59.2,32.9,29.53,SSW,201,20.0,24.0,37,0.00,,,0.00,Wunderground v.1.15,2013-04-15 10:40:00,
2013-04-15 03:50:00,59.2,32.9,29.53,SSW,194,23.0,29.0,37,0.00,,,0.00,Wunderground v.1.15,2013-04-15 10:50:00,
2013-04-15 04:00:00,59.0,33.4,29.54,SSW,202,23.0,23.0,38,0.00,,,0.00,Wunderground v.1.15,2013-04-15 11:00:00,
2013-04-15 04:10:00,58.6,33.0,29.54,SSW,202,20.0,22.0,38,0.00,,,0.00,Wunderground v.1.15,2013-04-15 11:10:00,
2013-04-15 04:20:00,58.2,33.3,29.53,SSW,202,23.0,23.0,39,0.00,,,0.00,Wunderground v.1.15,2013-04-15 11:20:00,
2013-04-15 04:30:00,58.1,33.2,29.53,SSW,200,22.0,22.0,39,0.00,,,0.00,Wunderground v.1.15,2013-04-15 11:30:00,
2013-04-15 04:40:00,57.6,33.4,29.52,SW,217,25.0,25.0,40,0.00,,,0.00,Wunderground v.1.15,2013-04-15 11:40:00,
2013-04-15 04:50:00,57.5,34.0,29.52,SSW,213,24.0,24.0,41,0.00,,,0.00,Wunderground v.1.15,2013-04-15 11:50:00,
2013-04-15 05:00:00,56.9,34.0,29.52,SW,217,24.0,24.0,42,0.00,,,0.00,Wunderground v.1.15,2013-04-15 12:00:00,
2013-04-15 05:10:00,56.7,34.4,29.52,SW,221,25.0,25.0,43,0.00,,,0.00,Wunderground v.1.15,2013-04-15 12:10:00,
2013-04-15 05:20:00,56.3,34.6,29.53,SSW,211,24.0,24.0,44,0.00,,,0.00,Wunderground v.1.15,2013-04-15 12:20:00,
2013-04-15 05:30:00,55.8,34.8,29.53,SW,216,22.0,25.0,45,0.00,,,0.00,Wunderground v.1.15,2013-04-15 12:30:00,
2013-04-15 05:40:00,55.7,34.7,29.53,SSW,205,23.0,24.0,45,0.00,,,0.00,Wunderground v.1.15,2013-04-15 12:40:00,
2013-04-15 05:50:00,55.3,35.4,29.53,SW,228,26.0,26.0,47,0.00,,,0.00,Wunderground v.1.15,2013-04-15 12:50:00,
2013-04-15 06:00:00,55.3,35.4,29.54,SW,221,29.0,32.0,47,0.00,,,0.00,Wunderground v.1.15,2013-04-15 13:00:00,
2013-04-15 06:10:00,55.2,35.3,29.53,SSW,213,26.0,26.0,47,0.00,,,0.00,Wunderground v.1.15,2013-04-15 13:10:00,
2013-04-15 06:20:00,55.1,35.7,29.53,SW,219,30.0,30.0,48,0.00,,,0.00,Wunderground v.1.15,2013-04-15 13:20:00,
2013-04-15 06:30:00,54.7,35.9,29.54,SSW,211,28.0,28.0,49,0.00,,,0.00,Wunderground v.1.15,2013-04-15 13:30:00,
2013-04-15 06:40:00,54.4,36.1,29.54,SSW,213,27.0,28.0,50,0.00,,,0.00,Wunderground v.1.15,2013-04-15 13:40:00,
2013-04-15 06:50:00,54.2,35.9,29.56,SW,219,26.0,26.0,50,0.00,,,0.00,Wunderground v.1.15,2013-04-15 13:50:00,
2013-04-15 07:00:00,54.5,36.2,29.56,SSW,202,24.0,24.0,50,0.00,,,0.00,Wunderground v.1.15,2013-04-15 14:00:00,
2013-04-15 07:10:00,55.0,36.2,29.56,SW,232,24.0,24.0,49,0.00,,,0.00,Wunderground v.1.15,2013-04-15 14:10:00,
2013-04-15 07:20:00,55.5,36.6,29.56,SW,221,25.0,25.0,49,0.00,,,0.00,Wunderground v.1.15,2013-04-15 14:20:00,
2013-04-15 07:30:00,56.0,36.6,29.57,SW,232,24.0,24.0,48,0.00,,,0.00,Wunderground v.1.15,2013-04-15 14:30:00,
2013-04-15 07:40:00,55.7,36.8,29.57,SW,222,27.0,27.0,49,0.00,,,0.00,Wunderground v.1.15,2013-04-15 14:40:00,
2013-04-15 07:50:00,56.9,36.9,29.57,SW,220,24.0,24.0,47,0.00,,,0.00,Wunderground v.1.15,2013-04-15 14:50:00,
2013-04-15 08:00:00,56.8,36.8,29.57,SSW,200,26.0,27.0,47,0.00,,,0.00,Wunderground v.1.15,2013-04-15 15:00:00,
2013-04-15 08:10:00,57.8,37.1,29.58,SSW,194,22.0,22.0,46,0.00,,,0.00,Wunderground v.1.15,2013-04-15 15:10:00,
2013-04-15 08:20:00,58.1,37.4,29.58,SSW,207,23.0,23.0,46,0.00,,,0.00,Wunderground v.1.15,2013-04-15 15:20:00,
2013-04-15 08:30:00,59.0,37.1,29.58,SSW,211,24.0,28.0,44,0.00,,,0.00,Wunderground v.1.15,2013-04-15 15:30:00,
2013-04-15 08:40:00,58.8,37.5,29.58,SW,227,24.0,24.0,45,0.00,,,0.00,Wunderground v.1.15,2013-04-15 15:40:00,
2013-04-15 08:50:00,59.9,37.3,29.58,SW,229,25.0,25.0,43,0.00,,,0.00,Wunderground v.1.15,2013-04-15 15:50:00,
2013-04-15 09:00:00,59.9,37.3,29.57,SSW,199,24.0,33.0,43,0.00,,,0.00,Wunderground v.1.15,2013-04-15 16:00:00,
2013-04-15 09:10:00,60.7,37.5,29.57,SSW,210,25.0,25.0,42,0.00,,,0.00,Wunderground v.1.15,2013-04-15 16:10:00,
2013-04-15 09:20:00,60.7,37.5,29.57,WSW,244,23.0,23.0,42,0.00,,,0.00,Wunderground v.1.15,2013-04-15 16:20:00,
2013-04-15 09:30:00,61.1,37.2,29.57,SW,222,24.0,24.0,41,0.00,,,0.00,Wunderground v.1.15,2013-04-15 16:30:00,
2013-04-15 09:40:00,61.4,36.8,29.57,SSW,211,25.0,25.0,40,0.00,,,0.00,Wunderground v.1.15,2013-04-15 16:40:00,
2013-04-15 09:50:00,61.7,37.1,29.57,SW,221,26.0,26.0,40,0.00,,,0.00,Wunderground v.1.15,2013-04-15 16:50:00,